createdAt,value
2022-09-28T00:00:24.227Z,3.40
2022-09-28T00:05:27.136Z,2.95
2022-09-28T00:10:29.805Z,2.95
2022-09-28T00:15:32.317Z,2.92
2022-09-28T00:20:34.877Z,3.47
2022-09-28T00:25:37.826Z,3.40
2022-09-28T00:30:40.385Z,3.20
2022-09-28T00:35:43.695Z,3.97
2022-09-28T00:40:46.331Z,2.97
2022-09-28T00:46:06.868Z,3.30
2022-09-28T00:51:12.638Z,3.08
2022-09-28T00:56:19.694Z,3.70
2022-09-28T01:01:23.282Z,3.28
2022-09-28T01:06:34.175Z,3.70
2022-09-28T01:11:38.864Z,3.45
2022-09-28T01:17:01.326Z,3.17
2022-09-28T01:22:34.217Z,3.33
2022-09-28T01:27:44.916Z,3.28
2022-09-28T01:32:54.762Z,3.72
2022-09-28T01:38:06.173Z,3.78
2022-09-28T01:43:18.076Z,3.58
2022-09-28T01:48:29.421Z,3.35
2022-09-28T01:53:46.981Z,3.30
2022-09-28T01:59:04.200Z,3.50
2022-09-28T02:04:21.887Z,3.45
2022-09-28T02:09:40.648Z,3.10
2022-09-28T02:14:47.294Z,3.33
2022-09-28T02:19:50.112Z,3.78
2022-09-28T02:25:03.537Z,2.90
2022-09-28T02:30:07.858Z,3.00
2022-09-28T02:35:16.833Z,3.10
2022-09-28T02:40:23.868Z,2.97
2022-09-28T02:45:36.255Z,4.18
2022-09-28T02:51:07.963Z,3.22
2022-09-28T02:56:39.310Z,3.42
2022-09-28T03:02:12.199Z,3.20
2022-09-28T03:07:31.342Z,3.08
2022-09-28T03:12:36.170Z,3.40
2022-09-28T03:17:38.737Z,3.50
2022-09-28T03:22:41.615Z,3.58
2022-09-28T03:27:45.218Z,3.75
2022-09-28T03:32:58.433Z,2.85
2022-09-28T03:38:02.556Z,3.40
2022-09-28T03:43:07.900Z,3.45
2022-09-28T03:48:10.611Z,3.30
2022-09-28T03:53:13.264Z,3.03
2022-09-28T03:58:16.109Z,3.10
2022-09-28T04:03:18.697Z,3.45
2022-09-28T04:08:21.354Z,3.63
2022-09-28T04:13:25.324Z,3.35
2022-09-28T04:18:28.215Z,3.60
2022-09-28T04:23:51.839Z,3.70
2022-09-28T04:29:13.074Z,3.78
2022-09-28T04:34:20.269Z,5.57
2022-09-28T04:39:22.924Z,3.78
2022-09-28T04:44:28.793Z,3.88
2022-09-28T04:49:38.723Z,3.80
2022-09-28T04:54:47.346Z,3.85
2022-09-28T04:59:49.943Z,3.30
2022-09-28T05:04:55.431Z,3.50
2022-09-28T05:10:13.721Z,3.95
2022-09-28T05:15:16.774Z,4.75
2022-09-28T05:20:19.626Z,4.82
2022-09-28T05:25:24.162Z,3.92
2022-09-28T05:30:47.164Z,3.97
2022-09-28T05:36:14.448Z,4.28
2022-09-28T05:41:18.404Z,4.40
2022-09-28T05:46:22.660Z,3.92
2022-09-28T05:51:26.420Z,4.40
2022-09-28T05:56:31.003Z,3.72
2022-09-28T06:01:33.868Z,3.90
2022-09-28T06:06:38.890Z,3.90
2022-09-28T06:11:41.502Z,4.10
2022-09-28T06:16:53.665Z,4.07
2022-09-28T06:21:59.156Z,3.85
2022-09-28T06:27:02.138Z,4.30
2022-09-28T06:32:05.044Z,4.28
2022-09-28T06:37:07.995Z,3.92
2022-09-28T06:42:11.793Z,3.85
2022-09-28T06:47:35.325Z,4.40
2022-09-28T06:52:57.408Z,3.78
2022-09-28T06:58:17.381Z,4.47
2022-09-28T07:03:22.093Z,19.80
2022-09-28T07:08:36.629Z,6.63
2022-09-28T07:13:57.821Z,6.93
2022-09-28T07:19:00.575Z,4.93
2022-09-28T07:24:03.177Z,4.05
2022-09-28T07:29:31.559Z,3.70
2022-09-28T07:34:58.748Z,3.60
2022-09-28T07:40:41.692Z,4.20
2022-09-28T07:45:52.718Z,4.13
2022-09-28T07:50:57.398Z,3.97
2022-09-28T07:56:24.186Z,4.20
2022-09-28T08:01:45.359Z,3.60
2022-09-28T08:06:49.813Z,3.20
2022-09-28T08:11:54.968Z,3.47
2022-09-28T08:17:16.722Z,3.00
2022-09-28T08:22:22.730Z,3.40
2022-09-28T08:27:27.778Z,3.45
2022-09-28T08:32:31.256Z,2.80
2022-09-28T08:37:55.607Z,2.88
2022-09-28T08:43:40.484Z,2.75
2022-09-28T08:49:26.853Z,2.50
2022-09-28T08:54:57.861Z,3.13
2022-09-28T09:00:19.429Z,2.63
2022-09-28T09:05:39.641Z,2.67
2022-09-28T09:11:02.909Z,2.50
2022-09-28T09:16:30.448Z,2.70
2022-09-28T09:21:54.709Z,2.90
2022-09-28T09:27:37.706Z,2.60
2022-09-28T09:33:24.197Z,4.70
2022-09-28T09:38:55.969Z,9.40
2022-09-28T09:44:40.897Z,5.78
2022-09-28T09:50:15.128Z,4.50
2022-09-28T09:55:30.162Z,6.53
2022-09-28T10:00:54.436Z,3.88
2022-09-28T10:06:30.375Z,3.30
2022-09-28T10:11:37.770Z,2.03
2022-09-28T10:16:45.205Z,2.05
2022-09-28T10:21:55.057Z,2.25
2022-09-28T10:27:15.631Z,2.17
2022-09-28T10:32:21.493Z,2.42
2022-09-28T10:37:25.427Z,2.03
2022-09-28T10:42:38.795Z,2.00
2022-09-28T10:47:44.858Z,2.40
2022-09-28T10:52:49.859Z,2.25
2022-09-28T10:58:36.332Z,2.20
2022-09-28T11:04:00.673Z,1.98
2022-09-28T11:09:28.417Z,1.58
2022-09-28T11:14:42.774Z,1.50
2022-09-28T11:19:56.178Z,1.92
2022-09-28T11:25:16.943Z,2.35
2022-09-28T11:30:24.792Z,2.40
2022-09-28T11:36:02.203Z,2.28
2022-09-28T11:41:32.878Z,2.08
2022-09-28T11:46:52.214Z,2.05
2022-09-28T11:52:00.004Z,1.77
2022-09-28T11:57:04.865Z,1.70
2022-09-28T12:02:22.260Z,2.55
2022-09-28T12:12:40.335Z,3.30
2022-09-28T12:17:52.474Z,2.58
2022-09-28T12:23:09.995Z,1.95
2022-09-28T12:28:30.650Z,2.30
2022-09-28T12:33:33.392Z,2.17
2022-09-28T12:39:23.996Z,2.25
2022-09-28T12:44:58.633Z,2.55
2022-09-28T12:55:37.551Z,2.50
2022-09-28T13:01:19.222Z,2.45
2022-09-28T13:06:56.877Z,2.63
2022-09-28T13:12:14.149Z,2.38
2022-09-28T13:17:49.490Z,2.45
2022-09-28T13:23:15.262Z,2.58
2022-09-28T13:28:26.266Z,2.50
2022-09-28T13:33:36.101Z,2.03
2022-09-28T13:38:49.883Z,2.50
2022-09-28T13:44:34.117Z,3.03
2022-09-28T13:49:56.651Z,2.60
2022-09-28T13:55:02.175Z,2.40
2022-09-28T14:00:15.954Z,2.88
2022-09-28T14:05:27.337Z,3.20
2022-09-28T14:11:21.512Z,2.88
2022-09-28T14:16:32.706Z,2.67
2022-09-28T14:21:59.294Z,1.83
2022-09-28T14:27:10.621Z,2.58
2022-09-28T14:32:13.080Z,2.35
2022-09-28T14:37:38.901Z,2.45
2022-09-28T14:43:20.793Z,2.95
2022-09-28T14:48:49.217Z,3.28
2022-09-28T14:54:00.420Z,2.83
2022-09-28T14:59:03.210Z,2.70
2022-09-28T15:04:11.800Z,3.17
2022-09-28T15:09:26.500Z,3.50
2022-09-28T15:14:32.997Z,2.85
2022-09-28T15:20:09.585Z,3.13
2022-09-28T15:25:20.147Z,3.00
2022-09-28T15:30:26.260Z,3.00
2022-09-28T15:35:28.980Z,3.00
2022-09-28T15:40:34.717Z,3.42
2022-09-28T15:45:40.054Z,3.30
2022-09-28T15:51:12.161Z,3.17
2022-09-28T15:56:14.977Z,3.03
2022-09-28T16:01:24.311Z,4.00
2022-09-28T16:06:26.969Z,3.85
2022-09-28T16:11:39.248Z,3.70
2022-09-28T16:16:46.932Z,3.58
2022-09-28T16:21:52.729Z,3.40
2022-09-28T16:27:02.712Z,3.28
2022-09-28T16:32:27.561Z,3.30
2022-09-28T16:37:32.085Z,3.40
2022-09-28T16:42:35.320Z,3.08
2022-09-28T16:47:37.892Z,3.65
2022-09-28T16:53:00.109Z,3.75
2022-09-28T16:58:04.884Z,3.78
2022-09-28T17:03:16.208Z,3.80
2022-09-28T17:08:22.291Z,3.80
2022-09-28T17:13:31.555Z,3.80
2022-09-28T17:18:37.520Z,3.63
2022-09-28T17:23:40.699Z,4.13
2022-09-28T17:28:43.351Z,3.45
2022-09-28T17:33:46.190Z,4.40
2022-09-28T17:38:49.597Z,4.50
2022-09-28T17:43:52.335Z,3.97
2022-09-28T17:48:59.555Z,5.07
2022-09-28T17:54:02.632Z,4.20
2022-09-28T17:59:17.065Z,4.05
2022-09-28T18:04:50.222Z,4.10
2022-09-28T18:09:45.027Z,4.07
2022-09-28T18:14:47.575Z,3.63
2022-09-28T18:19:51.020Z,4.00
2022-09-28T18:24:55.336Z,4.38
2022-09-28T18:29:57.867Z,3.45
2022-09-28T18:35:00.404Z,4.00
2022-09-28T18:40:03.284Z,4.20
2022-09-28T18:45:08.559Z,4.57
2022-09-28T18:50:12.971Z,4.25
2022-09-28T18:55:16.089Z,3.92
2022-09-28T19:00:18.696Z,4.47
2022-09-28T19:05:21.476Z,3.97
2022-09-28T19:10:24.021Z,3.83
2022-09-28T19:15:26.630Z,3.83
2022-09-28T19:20:29.254Z,3.45
2022-09-28T19:25:32.341Z,4.10
2022-09-28T19:30:35.212Z,4.93
2022-09-28T19:35:37.833Z,4.10
2022-09-28T19:40:40.574Z,3.67
2022-09-28T19:45:43.398Z,4.22
2022-09-28T19:50:56.426Z,4.55
2022-09-28T19:56:03.222Z,5.43
2022-09-28T20:01:06.987Z,5.13
2022-09-28T20:06:11.825Z,7.57
2022-09-28T20:11:18.674Z,8.43
2022-09-28T20:16:24.560Z,6.05
2022-09-28T20:21:28.017Z,6.25
2022-09-28T20:26:35.793Z,6.38
2022-09-28T20:31:38.516Z,6.57
2022-09-28T20:36:42.510Z,7.47
2022-09-28T20:41:46.842Z,7.88
2022-09-28T20:46:52.613Z,9.02
2022-09-28T20:51:55.163Z,9.00
2022-09-28T20:56:57.793Z,9.40
2022-09-28T21:02:00.531Z,10.27
2022-09-28T21:07:03.138Z,9.88
2022-09-28T21:12:05.932Z,8.80
2022-09-28T21:17:08.498Z,8.60
2022-09-28T21:22:11.283Z,8.63
2022-09-28T21:27:13.833Z,7.82
2022-09-28T21:32:16.475Z,7.28
2022-09-28T21:37:18.979Z,8.27
2022-09-28T21:42:21.657Z,6.82
2022-09-28T21:47:24.355Z,6.88
2022-09-28T21:52:27.106Z,6.60
2022-09-28T21:57:29.635Z,6.45
2022-09-28T22:02:33.904Z,6.75
2022-09-28T22:07:37.173Z,7.72
2022-09-28T22:12:39.846Z,7.22
2022-09-28T22:17:42.457Z,6.65
2022-09-28T22:22:51.087Z,7.03
2022-09-28T22:27:53.738Z,8.20
2022-09-28T22:32:56.397Z,7.18
2022-09-28T22:37:59.913Z,7.22
2022-09-28T22:43:02.556Z,7.50
2022-09-28T22:48:05.168Z,7.82
2022-09-28T22:53:08.101Z,7.90
2022-09-28T22:58:11.225Z,7.50
2022-09-28T23:03:14.015Z,7.93
2022-09-28T23:08:16.552Z,7.78
2022-09-28T23:13:19.497Z,7.65
2022-09-28T23:18:22.373Z,7.80
2022-09-28T23:23:25.075Z,8.65
2022-09-28T23:28:27.641Z,7.57
2022-09-28T23:33:30.217Z,7.68
2022-09-28T23:38:32.791Z,9.13
2022-09-28T23:43:36.465Z,7.75
2022-09-28T23:48:39.258Z,8.10
2022-09-28T23:53:43.348Z,7.22
2022-09-28T23:58:46.029Z,8.15
